sensor_id;sensor_type;location;lat;lon;timestamp;P1;durP1;ratioP1;P2;durP2;ratioP2
13432;SDS011;6789;47.678;9.158;2023-05-09T00:00:51;5.95;;;4.25;;
13432;SDS011;6789;47.678;9.158;2023-05-09T00:05:43;7.60;;;4.15;;
13432;SDS011;6789;47.678;9.158;2023-05-09T00:10:34;6.00;;;3.70;;
13432;SDS011;6789;47.678;9.158;2023-05-09T00:15:27;6.43;;;3.67;;
13432;SDS011;6789;47.678;9.158;2023-05-09T00:20:19;4.13;;;3.58;;
13432;SDS011;6789;47.678;9.158;2023-05-09T00:25:26;6.63;;;3.90;;
13432;SDS011;6789;47.678;9.158;2023-05-09T00:30:33;7.05;;;4.28;;
13432;SDS011;6789;47.678;9.158;2023-05-09T00:35:25;5.53;;;3.88;;
13432;SDS011;6789;47.678;9.158;2023-05-09T00:40:17;7.15;;;4.28;;
13432;SDS011;6789;47.678;9.158;2023-05-09T00:45:09;6.13;;;5.07;;
13432;SDS011;6789;47.678;9.158;2023-05-09T00:50:01;5.35;;;4.15;;
13432;SDS011;6789;47.678;9.158;2023-05-09T00:54:54;5.05;;;4.47;;
13432;SDS011;6789;47.678;9.158;2023-05-09T00:59:46;6.03;;;4.90;;
13432;SDS011;6789;47.678;9.158;2023-05-09T01:04:53;6.15;;;4.32;;
13432;SDS011;6789;47.678;9.158;2023-05-09T01:10:01;9.23;;;5.53;;
13432;SDS011;6789;47.678;9.158;2023-05-09T01:25:43;6.72;;;5.70;;
13432;SDS011;6789;47.678;9.158;2023-05-09T01:30:39;9.52;;;5.93;;
13432;SDS011;6789;47.678;9.158;2023-05-09T01:35:36;8.43;;;5.72;;
13432;SDS011;6789;47.678;9.158;2023-05-09T01:40:32;7.70;;;5.45;;
13432;SDS011;6789;47.678;9.158;2023-05-09T01:45:26;9.40;;;5.97;;
13432;SDS011;6789;47.678;9.158;2023-05-09T01:50:20;7.80;;;5.55;;
13432;SDS011;6789;47.678;9.158;2023-05-09T01:55:14;6.60;;;5.10;;
13432;SDS011;6789;47.678;9.158;2023-05-09T02:00:07;6.75;;;5.00;;
13432;SDS011;6789;47.678;9.158;2023-05-09T02:05:03;6.63;;;4.80;;
13432;SDS011;6789;47.678;9.158;2023-05-09T02:09:56;7.43;;;5.03;;
13432;SDS011;6789;47.678;9.158;2023-05-09T02:14:50;7.45;;;4.38;;
13432;SDS011;6789;47.678;9.158;2023-05-09T02:19:42;8.00;;;5.05;;
13432;SDS011;6789;47.678;9.158;2023-05-09T02:24:34;6.28;;;5.43;;
13432;SDS011;6789;47.678;9.158;2023-05-09T02:29:28;8.95;;;5.97;;
13432;SDS011;6789;47.678;9.158;2023-05-09T02:34:30;10.38;;;6.93;;
13432;SDS011;6789;47.678;9.158;2023-05-09T02:39:22;9.93;;;7.57;;
13432;SDS011;6789;47.678;9.158;2023-05-09T02:44:14;11.10;;;7.60;;
13432;SDS011;6789;47.678;9.158;2023-05-09T02:49:06;10.27;;;7.97;;
13432;SDS011;6789;47.678;9.158;2023-05-09T02:53:58;10.93;;;8.05;;
13432;SDS011;6789;47.678;9.158;2023-05-09T02:58:50;10.63;;;8.07;;
13432;SDS011;6789;47.678;9.158;2023-05-09T03:03:42;11.85;;;6.90;;
13432;SDS011;6789;47.678;9.158;2023-05-09T03:08:34;11.18;;;8.82;;
13432;SDS011;6789;47.678;9.158;2023-05-09T03:13:25;10.90;;;8.77;;
13432;SDS011;6789;47.678;9.158;2023-05-09T03:18:52;19.48;;;11.73;;
13432;SDS011;6789;47.678;9.158;2023-05-09T03:23:44;16.65;;;11.43;;
13432;SDS011;6789;47.678;9.158;2023-05-09T03:28:36;15.40;;;12.30;;
13432;SDS011;6789;47.678;9.158;2023-05-09T03:33:28;21.85;;;14.27;;
13432;SDS011;6789;47.678;9.158;2023-05-09T03:38:20;19.55;;;13.50;;
13432;SDS011;6789;47.678;9.158;2023-05-09T03:43:14;20.70;;;12.57;;
13432;SDS011;6789;47.678;9.158;2023-05-09T03:48:06;16.27;;;11.32;;
13432;SDS011;6789;47.678;9.158;2023-05-09T03:52:59;10.48;;;8.60;;
13432;SDS011;6789;47.678;9.158;2023-05-09T03:57:52;21.25;;;14.65;;
13432;SDS011;6789;47.678;9.158;2023-05-09T04:02:44;25.30;;;17.98;;
13432;SDS011;6789;47.678;9.158;2023-05-09T04:07:38;25.50;;;17.50;;
13432;SDS011;6789;47.678;9.158;2023-05-09T04:12:38;25.52;;;17.48;;
13432;SDS011;6789;47.678;9.158;2023-05-09T04:17:30;23.13;;;17.38;;
13432;SDS011;6789;47.678;9.158;2023-05-09T04:22:22;26.63;;;17.70;;
13432;SDS011;6789;47.678;9.158;2023-05-09T04:27:14;23.95;;;16.83;;
13432;SDS011;6789;47.678;9.158;2023-05-09T04:32:20;25.30;;;17.25;;
13432;SDS011;6789;47.678;9.158;2023-05-09T04:37:12;26.48;;;16.52;;
13432;SDS011;6789;47.678;9.158;2023-05-09T04:42:04;23.77;;;16.85;;
13432;SDS011;6789;47.678;9.158;2023-05-09T04:46:56;22.23;;;16.48;;
13432;SDS011;6789;47.678;9.158;2023-05-09T04:51:48;26.90;;;16.38;;
13432;SDS011;6789;47.678;9.158;2023-05-09T04:56:40;22.73;;;16.52;;
13432;SDS011;6789;47.678;9.158;2023-05-09T05:01:32;24.80;;;17.55;;
13432;SDS011;6789;47.678;9.158;2023-05-09T05:06:24;20.88;;;16.17;;
13432;SDS011;6789;47.678;9.158;2023-05-09T05:11:15;22.55;;;14.30;;
13432;SDS011;6789;47.678;9.158;2023-05-09T05:16:12;16.98;;;12.15;;
13432;SDS011;6789;47.678;9.158;2023-05-09T05:21:21;19.70;;;13.55;;
13432;SDS011;6789;47.678;9.158;2023-05-09T05:26:18;21.75;;;14.25;;
13432;SDS011;6789;47.678;9.158;2023-05-09T05:31:10;19.48;;;14.00;;
13432;SDS011;6789;47.678;9.158;2023-05-09T05:36:16;18.00;;;13.20;;
13432;SDS011;6789;47.678;9.158;2023-05-09T05:41:07;17.92;;;13.60;;
13432;SDS011;6789;47.678;9.158;2023-05-09T05:46:02;17.70;;;12.38;;
13432;SDS011;6789;47.678;9.158;2023-05-09T05:50:55;16.20;;;11.90;;
13432;SDS011;6789;47.678;9.158;2023-05-09T05:56:15;15.02;;;10.27;;
13432;SDS011;6789;47.678;9.158;2023-05-09T06:01:07;15.10;;;10.10;;
13432;SDS011;6789;47.678;9.158;2023-05-09T06:06:13;11.30;;;8.27;;
13432;SDS011;6789;47.678;9.158;2023-05-09T06:11:19;12.70;;;8.60;;
13432;SDS011;6789;47.678;9.158;2023-05-09T06:16:25;9.75;;;8.07;;
13432;SDS011;6789;47.678;9.158;2023-05-09T06:21:25;11.02;;;8.70;;
13432;SDS011;6789;47.678;9.158;2023-05-09T06:26:32;11.35;;;8.40;;
13432;SDS011;6789;47.678;9.158;2023-05-09T06:31:39;11.15;;;8.45;;
13432;SDS011;6789;47.678;9.158;2023-05-09T06:36:45;10.07;;;7.93;;
13432;SDS011;6789;47.678;9.158;2023-05-09T06:41:51;11.02;;;8.75;;
13432;SDS011;6789;47.678;9.158;2023-05-09T06:46:57;9.63;;;7.82;;
13432;SDS011;6789;47.678;9.158;2023-05-09T06:52:05;8.60;;;7.00;;
13432;SDS011;6789;47.678;9.158;2023-05-09T06:57:11;9.68;;;8.02;;
13432;SDS011;6789;47.678;9.158;2023-05-09T07:02:28;9.25;;;7.75;;
13432;SDS011;6789;47.678;9.158;2023-05-09T07:07:51;8.60;;;6.80;;
13432;SDS011;6789;47.678;9.158;2023-05-09T07:13:24;8.00;;;6.38;;
13432;SDS011;6789;47.678;9.158;2023-05-09T07:18:33;7.88;;;6.82;;
13432;SDS011;6789;47.678;9.158;2023-05-09T07:23:41;7.90;;;6.53;;
13432;SDS011;6789;47.678;9.158;2023-05-09T07:28:38;7.40;;;6.32;;
13432;SDS011;6789;47.678;9.158;2023-05-09T07:33:30;10.32;;;7.50;;
13432;SDS011;6789;47.678;9.158;2023-05-09T07:49:46;6.95;;;5.63;;
13432;SDS011;6789;47.678;9.158;2023-05-09T07:54:53;5.35;;;4.85;;
13432;SDS011;6789;47.678;9.158;2023-05-09T07:59:59;5.38;;;4.88;;
13432;SDS011;6789;47.678;9.158;2023-05-09T08:05:10;5.93;;;4.78;;
13432;SDS011;6789;47.678;9.158;2023-05-09T08:10:12;5.82;;;4.85;;
13432;SDS011;6789;47.678;9.158;2023-05-09T08:15:07;5.95;;;4.60;;
13432;SDS011;6789;47.678;9.158;2023-05-09T08:20:07;8.80;;;5.18;;
13432;SDS011;6789;47.678;9.158;2023-05-09T08:25:39;5.78;;;5.10;;
13432;SDS011;6789;47.678;9.158;2023-05-09T08:30:56;6.63;;;5.90;;
13432;SDS011;6789;47.678;9.158;2023-05-09T08:36:05;7.50;;;5.28;;
13432;SDS011;6789;47.678;9.158;2023-05-09T08:41:15;4.78;;;4.20;;
13432;SDS011;6789;47.678;9.158;2023-05-09T08:46:34;5.10;;;4.55;;
13432;SDS011;6789;47.678;9.158;2023-05-09T08:52:03;7.18;;;4.07;;
13432;SDS011;6789;47.678;9.158;2023-05-09T08:57:23;4.88;;;4.00;;
13432;SDS011;6789;47.678;9.158;2023-05-09T09:02:18;7.85;;;3.70;;
13432;SDS011;6789;47.678;9.158;2023-05-09T09:07:25;4.32;;;3.80;;
13432;SDS011;6789;47.678;9.158;2023-05-09T09:12:21;5.20;;;3.85;;
13432;SDS011;6789;47.678;9.158;2023-05-09T09:17:29;4.13;;;3.35;;
13432;SDS011;6789;47.678;9.158;2023-05-09T09:22:51;5.38;;;4.50;;
13432;SDS011;6789;47.678;9.158;2023-05-09T09:28:04;4.35;;;3.92;;
13432;SDS011;6789;47.678;9.158;2023-05-09T09:33:17;7.10;;;5.07;;
13432;SDS011;6789;47.678;9.158;2023-05-09T09:38:27;8.88;;;5.05;;
13432;SDS011;6789;47.678;9.158;2023-05-09T09:43:44;5.20;;;4.65;;
13432;SDS011;6789;47.678;9.158;2023-05-09T09:48:53;7.78;;;5.43;;
13432;SDS011;6789;47.678;9.158;2023-05-09T09:54:02;5.88;;;4.53;;
13432;SDS011;6789;47.678;9.158;2023-05-09T09:59:08;5.40;;;4.90;;
13432;SDS011;6789;47.678;9.158;2023-05-09T10:09:26;7.40;;;4.50;;
13432;SDS011;6789;47.678;9.158;2023-05-09T10:14:34;4.47;;;3.85;;
13432;SDS011;6789;47.678;9.158;2023-05-09T10:19:31;3.70;;;3.40;;
13432;SDS011;6789;47.678;9.158;2023-05-09T10:24:47;3.80;;;3.40;;
13432;SDS011;6789;47.678;9.158;2023-05-09T10:30:08;4.40;;;3.25;;
13432;SDS011;6789;47.678;9.158;2023-05-09T10:35:35;3.70;;;3.10;;
13432;SDS011;6789;47.678;9.158;2023-05-09T10:40:48;3.83;;;3.42;;
13432;SDS011;6789;47.678;9.158;2023-05-09T10:45:54;3.35;;;2.80;;
13432;SDS011;6789;47.678;9.158;2023-05-09T10:51:02;4.80;;;3.00;;
13432;SDS011;6789;47.678;9.158;2023-05-09T10:56:25;3.67;;;2.22;;
13432;SDS011;6789;47.678;9.158;2023-05-09T11:01:42;2.58;;;2.13;;
13432;SDS011;6789;47.678;9.158;2023-05-09T11:06:40;1.73;;;1.63;;
13432;SDS011;6789;47.678;9.158;2023-05-09T11:12:24;1.35;;;1.25;;
13432;SDS011;6789;47.678;9.158;2023-05-09T11:22:29;1.38;;;1.27;;
13432;SDS011;6789;47.678;9.158;2023-05-09T11:32:53;3.33;;;1.10;;
13432;SDS011;6789;47.678;9.158;2023-05-09T11:38:05;0.70;;;0.70;;
13432;SDS011;6789;47.678;9.158;2023-05-09T11:43:11;0.90;;;0.90;;
13432;SDS011;6789;47.678;9.158;2023-05-09T11:48:20;0.65;;;0.65;;
13432;SDS011;6789;47.678;9.158;2023-05-09T11:53:28;3.20;;;1.10;;
13432;SDS011;6789;47.678;9.158;2023-05-09T11:58:37;2.00;;;0.90;;
13432;SDS011;6789;47.678;9.158;2023-05-09T12:03:44;2.55;;;1.20;;
13432;SDS011;6789;47.678;9.158;2023-05-09T12:08:51;1.63;;;0.90;;
13432;SDS011;6789;47.678;9.158;2023-05-09T12:14:01;2.38;;;0.95;;
13432;SDS011;6789;47.678;9.158;2023-05-09T12:19:06;1.38;;;0.90;;
13432;SDS011;6789;47.678;9.158;2023-05-09T12:24:40;0.80;;;0.80;;
13432;SDS011;6789;47.678;9.158;2023-05-09T12:29:32;2.60;;;1.13;;
13432;SDS011;6789;47.678;9.158;2023-05-09T12:34:25;2.88;;;2.00;;
13432;SDS011;6789;47.678;9.158;2023-05-09T12:39:32;1.23;;;1.10;;
13432;SDS011;6789;47.678;9.158;2023-05-09T12:44:38;1.48;;;1.17;;
13432;SDS011;6789;47.678;9.158;2023-05-09T12:49:49;1.10;;;1.02;;
13432;SDS011;6789;47.678;9.158;2023-05-09T12:55:04;2.97;;;1.00;;
13432;SDS011;6789;47.678;9.158;2023-05-09T13:00:39;1.10;;;1.00;;
13432;SDS011;6789;47.678;9.158;2023-05-09T13:05:52;1.10;;;1.02;;
13432;SDS011;6789;47.678;9.158;2023-05-09T13:11:13;1.65;;;0.80;;
13432;SDS011;6789;47.678;9.158;2023-05-09T13:16:30;1.75;;;1.00;;
13432;SDS011;6789;47.678;9.158;2023-05-09T13:21:46;2.60;;;0.90;;
13432;SDS011;6789;47.678;9.158;2023-05-09T13:26:57;0.60;;;0.60;;
13432;SDS011;6789;47.678;9.158;2023-05-09T13:32:04;0.70;;;0.70;;
13432;SDS011;6789;47.678;9.158;2023-05-09T13:37:30;1.77;;;0.63;;
13432;SDS011;6789;47.678;9.158;2023-05-09T13:42:40;0.70;;;0.70;;
13432;SDS011;6789;47.678;9.158;2023-05-09T13:47:45;1.95;;;0.75;;
13432;SDS011;6789;47.678;9.158;2023-05-09T13:52:47;0.80;;;0.80;;
13432;SDS011;6789;47.678;9.158;2023-05-09T13:58:32;0.82;;;0.82;;
13432;SDS011;6789;47.678;9.158;2023-05-09T14:03:38;0.73;;;0.73;;
13432;SDS011;6789;47.678;9.158;2023-05-09T14:08:44;1.42;;;0.90;;
13432;SDS011;6789;47.678;9.158;2023-05-09T14:13:39;3.10;;;0.80;;
13432;SDS011;6789;47.678;9.158;2023-05-09T14:18:46;0.70;;;0.70;;
13432;SDS011;6789;47.678;9.158;2023-05-09T14:23:44;0.60;;;0.60;;
13432;SDS011;6789;47.678;9.158;2023-05-09T14:29:08;1.02;;;0.77;;
13432;SDS011;6789;47.678;9.158;2023-05-09T14:34:15;1.30;;;0.90;;
13432;SDS011;6789;47.678;9.158;2023-05-09T14:39:30;1.67;;;1.02;;
13432;SDS011;6789;47.678;9.158;2023-05-09T14:45:16;1.08;;;1.05;;
13432;SDS011;6789;47.678;9.158;2023-05-09T14:50:23;1.10;;;1.10;;
13432;SDS011;6789;47.678;9.158;2023-05-09T14:55:32;1.58;;;1.15;;
13432;SDS011;6789;47.678;9.158;2023-05-09T15:01:11;1.45;;;0.98;;
13432;SDS011;6789;47.678;9.158;2023-05-09T15:06:04;1.10;;;1.00;;
13432;SDS011;6789;47.678;9.158;2023-05-09T15:11:39;1.38;;;1.13;;
13432;SDS011;6789;47.678;9.158;2023-05-09T15:16:52;2.55;;;1.10;;
13432;SDS011;6789;47.678;9.158;2023-05-09T15:22:01;1.08;;;1.00;;
13432;SDS011;6789;47.678;9.158;2023-05-09T15:27:09;1.25;;;1.00;;
13432;SDS011;6789;47.678;9.158;2023-05-09T15:32:16;2.35;;;1.30;;
13432;SDS011;6789;47.678;9.158;2023-05-09T15:37:32;1.10;;;1.00;;
13432;SDS011;6789;47.678;9.158;2023-05-09T15:42:42;2.05;;;1.10;;
13432;SDS011;6789;47.678;9.158;2023-05-09T15:48:12;2.72;;;1.15;;
13432;SDS011;6789;47.678;9.158;2023-05-09T15:53:19;2.78;;;1.17;;
13432;SDS011;6789;47.678;9.158;2023-05-09T16:04:50;1.40;;;1.30;;
13432;SDS011;6789;47.678;9.158;2023-05-09T16:09:56;1.30;;;1.20;;
13432;SDS011;6789;47.678;9.158;2023-05-09T16:14:53;2.53;;;1.40;;
13432;SDS011;6789;47.678;9.158;2023-05-09T16:19:59;4.07;;;1.38;;
13432;SDS011;6789;47.678;9.158;2023-05-09T16:25:06;1.73;;;1.40;;
13432;SDS011;6789;47.678;9.158;2023-05-09T16:30:14;1.80;;;1.48;;
13432;SDS011;6789;47.678;9.158;2023-05-09T16:35:20;3.55;;;1.20;;
13432;SDS011;6789;47.678;9.158;2023-05-09T16:40:37;1.10;;;1.00;;
13432;SDS011;6789;47.678;9.158;2023-05-09T16:46:05;1.65;;;1.23;;
13432;SDS011;6789;47.678;9.158;2023-05-09T16:51:15;1.88;;;1.67;;
13432;SDS011;6789;47.678;9.158;2023-05-09T16:56:25;3.15;;;1.60;;
13432;SDS011;6789;47.678;9.158;2023-05-09T17:01:46;1.55;;;1.42;;
13432;SDS011;6789;47.678;9.158;2023-05-09T17:06:53;4.75;;;1.70;;
13432;SDS011;6789;47.678;9.158;2023-05-09T17:11:59;2.47;;;1.80;;
13432;SDS011;6789;47.678;9.158;2023-05-09T17:17:05;3.13;;;1.80;;
13432;SDS011;6789;47.678;9.158;2023-05-09T17:22:13;4.05;;;1.50;;
13432;SDS011;6789;47.678;9.158;2023-05-09T17:27:32;2.60;;;1.40;;
13432;SDS011;6789;47.678;9.158;2023-05-09T17:38:19;1.13;;;1.02;;
13432;SDS011;6789;47.678;9.158;2023-05-09T17:43:39;2.28;;;1.20;;
13432;SDS011;6789;47.678;9.158;2023-05-09T18:00:05;2.17;;;1.00;;
13432;SDS011;6789;47.678;9.158;2023-05-09T18:05:13;0.77;;;0.70;;
13432;SDS011;6789;47.678;9.158;2023-05-09T18:10:20;1.70;;;0.80;;
13432;SDS011;6789;47.678;9.158;2023-05-09T18:15:30;2.38;;;0.90;;
13432;SDS011;6789;47.678;9.158;2023-05-09T18:20:41;1.42;;;0.90;;
13432;SDS011;6789;47.678;9.158;2023-05-09T18:25:47;0.82;;;0.73;;
13432;SDS011;6789;47.678;9.158;2023-05-09T18:30:55;1.38;;;0.70;;
13432;SDS011;6789;47.678;9.158;2023-05-09T18:36:07;2.10;;;1.00;;
13432;SDS011;6789;47.678;9.158;2023-05-09T18:41:22;1.63;;;0.98;;
13432;SDS011;6789;47.678;9.158;2023-05-09T18:46:31;0.77;;;0.68;;
13432;SDS011;6789;47.678;9.158;2023-05-09T18:51:37;1.05;;;0.80;;
13432;SDS011;6789;47.678;9.158;2023-05-09T18:56:47;2.22;;;0.90;;
13432;SDS011;6789;47.678;9.158;2023-05-09T19:02:03;1.10;;;1.00;;
13432;SDS011;6789;47.678;9.158;2023-05-09T19:06:55;1.30;;;1.20;;
13432;SDS011;6789;47.678;9.158;2023-05-09T19:11:49;1.35;;;0.90;;
13432;SDS011;6789;47.678;9.158;2023-05-09T19:16:40;1.40;;;1.30;;
13432;SDS011;6789;47.678;9.158;2023-05-09T19:22:13;2.03;;;1.55;;
13432;SDS011;6789;47.678;9.158;2023-05-09T19:40:16;1.75;;;1.25;;
13432;SDS011;6789;47.678;9.158;2023-05-09T19:45:08;1.40;;;1.23;;
13432;SDS011;6789;47.678;9.158;2023-05-09T19:50:01;2.40;;;1.25;;
13432;SDS011;6789;47.678;9.158;2023-05-09T19:54:52;2.75;;;1.33;;
13432;SDS011;6789;47.678;9.158;2023-05-09T19:59:44;1.63;;;1.05;;
13432;SDS011;6789;47.678;9.158;2023-05-09T20:04:37;2.17;;;1.40;;
13432;SDS011;6789;47.678;9.158;2023-05-09T20:09:29;1.40;;;1.30;;
13432;SDS011;6789;47.678;9.158;2023-05-09T20:14:22;1.25;;;1.10;;
13432;SDS011;6789;47.678;9.158;2023-05-09T20:19:14;1.77;;;1.30;;
13432;SDS011;6789;47.678;9.158;2023-05-09T20:24:07;1.50;;;1.40;;
13432;SDS011;6789;47.678;9.158;2023-05-09T20:28:59;1.48;;;1.23;;
13432;SDS011;6789;47.678;9.158;2023-05-09T20:33:54;1.60;;;1.50;;
13432;SDS011;6789;47.678;9.158;2023-05-09T20:39:04;4.07;;;1.70;;
13432;SDS011;6789;47.678;9.158;2023-05-09T20:43:56;2.80;;;1.77;;
13432;SDS011;6789;47.678;9.158;2023-05-09T20:49:07;2.50;;;1.75;;
13432;SDS011;6789;47.678;9.158;2023-05-09T20:54:17;2.25;;;2.05;;
13432;SDS011;6789;47.678;9.158;2023-05-09T20:59:08;2.20;;;2.00;;
13432;SDS011;6789;47.678;9.158;2023-05-09T21:04:00;2.42;;;1.98;;
13432;SDS011;6789;47.678;9.158;2023-05-09T21:09:12;1.75;;;1.65;;
13432;SDS011;6789;47.678;9.158;2023-05-09T21:14:05;1.30;;;1.20;;
13432;SDS011;6789;47.678;9.158;2023-05-09T21:19:16;2.83;;;1.00;;
13432;SDS011;6789;47.678;9.158;2023-05-09T21:24:08;1.30;;;0.75;;
13432;SDS011;6789;47.678;9.158;2023-05-09T21:29:00;1.38;;;0.80;;
13432;SDS011;6789;47.678;9.158;2023-05-09T21:33:51;0.70;;;0.40;;
13432;SDS011;6789;47.678;9.158;2023-05-09T21:38:43;2.50;;;0.55;;
13432;SDS011;6789;47.678;9.158;2023-05-09T21:43:35;0.68;;;0.40;;
13432;SDS011;6789;47.678;9.158;2023-05-09T21:48:27;0.30;;;0.30;;
13432;SDS011;6789;47.678;9.158;2023-05-09T21:53:19;0.30;;;0.30;;
13432;SDS011;6789;47.678;9.158;2023-05-09T21:58:11;1.55;;;0.25;;
13432;SDS011;6789;47.678;9.158;2023-05-09T22:28:38;0.30;;;0.30;;
13432;SDS011;6789;47.678;9.158;2023-05-09T22:33:29;0.40;;;0.40;;
13432;SDS011;6789;47.678;9.158;2023-05-09T22:38:21;0.30;;;0.30;;
13432;SDS011;6789;47.678;9.158;2023-05-09T22:43:13;0.95;;;0.50;;
13432;SDS011;6789;47.678;9.158;2023-05-09T22:48:05;0.50;;;0.50;;
13432;SDS011;6789;47.678;9.158;2023-05-09T22:52:57;0.95;;;0.47;;
13432;SDS011;6789;47.678;9.158;2023-05-09T22:57:48;0.52;;;0.50;;
13432;SDS011;6789;47.678;9.158;2023-05-09T23:35:08;0.35;;;0.20;;
13432;SDS011;6789;47.678;9.158;2023-05-09T23:40:01;0.20;;;0.10;;
13432;SDS011;6789;47.678;9.158;2023-05-09T23:44:54;0.50;;;0.10;;
13432;SDS011;6789;47.678;9.158;2023-05-09T23:49:45;0.15;;;0.15;;
13432;SDS011;6789;47.678;9.158;2023-05-09T23:54:37;3.67;;;0.30;;
13432;SDS011;6789;47.678;9.158;2023-05-09T23:59:29;0.65;;;0.10;;
